Time;durP1;ratioP1;P1;durP2;ratioP2;P2;SDS_P1;SDS_P2;PMS_P1;PMS_P2;Temp;Humidity;BMP_temperature;BMP_pressure;BME280_temperature;BME280_humidity;BME280_pressure;Samples;Min_cycle;Max_cycle;Signal;HPM_P1;HPM_P2
2024/03/27 00:01:12;;;;;;;1.25;0.30;;;;;;;8.65;100.00;98955.25;5033955;28;20052;-67
2024/03/27 00:03:39;;;;;;;0.57;0.20;;;;;;;8.53;100.00;98959.16;5037345;28;20515;-68
2024/03/27 00:06:04;;;;;;;1.08;0.30;;;;;;;8.41;100.00;98957.94;5042773;28;20035;-67
2024/03/27 00:08:31;;;;;;;1.65;0.20;;;;;;;8.34;100.00;98956.97;5040882;28;20033;-68
2024/03/27 00:10:56;;;;;;;1.25;0.10;;;;;;;8.31;100.00;98955.50;5047699;28;20067;-68
2024/03/27 00:13:22;;;;;;;1.23;0.20;;;;;;;8.32;100.00;98953.72;5041756;28;20057;-68
2024/03/27 00:15:54;;;;;;;5.53;0.30;;;;;;;8.36;100.00;98949.03;5046650;28;20051;-68
2024/03/27 00:18:21;;;;;;;0.70;0.10;;;;;;;8.37;100.00;98954.06;5039521;28;20112;-69
2024/03/27 00:20:46;;;;;;;1.75;0.10;;;;;;;8.36;100.00;98949.84;5042434;28;20423;-68
2024/03/27 00:23:15;;;;;;;0.75;0.10;;;;;;;8.34;100.00;98949.19;5036536;28;20035;-68
2024/03/27 00:25:41;;;;;;;2.20;0.20;;;;;;;8.35;100.00;98953.41;5034967;28;20037;-67
2024/03/27 00:28:07;;;;;;;0.32;0.13;;;;;;;8.37;100.00;98935.88;5038994;28;20064;-67
2024/03/27 00:30:34;;;;;;;1.63;0.30;;;;;;;8.40;100.00;98945.13;5039632;28;20025;-67
2024/03/27 00:32:59;;;;;;;0.85;0.10;;;;;;;8.39;100.00;98933.13;5046084;28;20049;-67
2024/03/27 00:35:25;;;;;;;0.47;0.10;;;;;;;8.37;100.00;98930.69;5044186;28;20036;-67
2024/03/27 00:37:52;;;;;;;1.08;0.15;;;;;;;8.38;100.00;98931.50;5042274;28;20037;-67
2024/03/27 00:40:18;;;;;;;2.55;0.13;;;;;;;8.39;100.00;98927.94;5037674;28;20493;-67
2024/03/27 00:42:44;;;;;;;0.70;0.10;;;;;;;8.39;100.00;98922.75;5042492;28;20022;-67
2024/03/27 00:45:10;;;;;;;0.30;0.10;;;;;;;8.39;100.00;98908.00;5030239;28;20041;-67
2024/03/27 00:47:35;;;;;;;0.38;0.10;;;;;;;8.41;100.00;98913.00;5037954;28;20131;-67
2024/03/27 00:50:01;;;;;;;0.10;0.00;;;;;;;8.39;100.00;98917.56;5037177;28;20107;-67
2024/03/27 00:52:26;;;;;;;0.55;0.10;;;;;;;8.38;100.00;98913.34;5037369;28;20025;-67
2024/03/27 00:54:52;;;;;;;0.60;0.10;;;;;;;8.39;100.00;98908.00;5044443;28;20116;-67
2024/03/27 00:57:18;;;;;;;0.20;0.00;;;;;;;8.46;100.00;98905.53;5043829;28;20481;-67
2024/03/27 00:59:44;;;;;;;0.20;0.10;;;;;;;8.46;100.00;98908.13;5045306;28;20500;-67
2024/03/27 01:02:09;;;;;;;1.40;0.00;;;;;;;8.47;100.00;98907.16;5042654;28;20500;-67
2024/03/27 01:04:35;;;;;;;0.47;0.10;;;;;;;8.51;100.00;98913.59;5043027;28;20098;-68
2024/03/27 01:07:01;;;;;;;2.83;0.00;;;;;;;8.52;100.00;98904.81;5043349;28;20025;-68
2024/03/27 01:09:26;;;;;;;3.30;0.10;;;;;;;8.53;100.00;98893.47;5043752;28;20492;-67
2024/03/27 01:11:52;;;;;;;0.17;0.10;;;;;;;8.53;100.00;98896.88;5037010;28;20032;-67
2024/03/27 01:14:17;;;;;;;0.10;0.00;;;;;;;8.54;100.00;98895.09;5032664;28;20025;-67
2024/03/27 01:16:43;;;;;;;0.30;0.10;;;;;;;8.52;100.00;98895.25;5041071;28;20060;-67
2024/03/27 01:19:08;;;;;;;0.17;0.08;;;;;;;8.50;100.00;98896.44;5040941;28;20128;-68
2024/03/27 01:21:34;;;;;;;0.20;0.10;;;;;;;8.52;100.00;98891.84;5036762;28;20089;-68
2024/03/27 01:23:59;;;;;;;0.45;0.10;;;;;;;8.53;100.00;98890.88;5038502;28;20052;-68
2024/03/27 01:26:25;;;;;;;0.20;0.00;;;;;;;8.49;100.00;98889.63;5043542;28;20044;-67
2024/03/27 01:28:50;;;;;;;0.80;0.10;;;;;;;8.47;100.00;98894.97;5041546;28;20037;-67
2024/03/27 01:31:16;;;;;;;0.30;0.10;;;;;;;8.45;100.00;98896.13;5039362;28;20032;-67
2024/03/27 01:33:41;;;;;;;0.73;0.10;;;;;;;8.46;100.00;98887.38;5040167;28;20048;-67
2024/03/27 01:36:07;;;;;;;0.20;0.00;;;;;;;8.45;100.00;98880.56;5039568;28;20375;-67
2024/03/27 01:38:32;;;;;;;0.65;0.10;;;;;;;8.46;100.00;98884.75;5040897;28;20099;-67
2024/03/27 01:40:58;;;;;;;2.67;0.10;;;;;;;8.45;100.00;98880.56;5038450;28;20037;-67
2024/03/27 01:43:23;;;;;;;0.08;0.00;;;;;;;8.44;100.00;98878.94;5043311;28;20893;-67
2024/03/27 01:45:49;;;;;;;0.30;0.10;;;;;;;8.43;100.00;98877.31;5046924;28;20118;-67
2024/03/27 01:48:15;;;;;;;1.05;0.00;;;;;;;8.41;100.00;98880.09;5040106;28;20037;-67
2024/03/27 01:50:41;;;;;;;0.68;0.15;;;;;;;8.41;100.00;98892.25;5034866;28;20124;-67
2024/03/27 01:53:10;;;;;;;0.60;0.03;;;;;;;8.42;100.00;98881.69;5038462;28;20391;-67
2024/03/27 01:55:36;;;;;;;0.30;0.10;;;;;;;8.48;100.00;98888.00;5034482;28;20033;-68
2024/03/27 01:58:03;;;;;;;0.45;0.10;;;;;;;8.51;100.00;98885.03;5038239;28;20044;-67
2024/03/27 02:00:28;;;;;;;0.60;0.10;;;;;;;8.53;100.00;98877.88;5036654;28;20035;-67
2024/03/27 02:02:54;;;;;;;0.32;0.10;;;;;;;8.46;100.00;98877.78;5035051;28;20029;-67
2024/03/27 02:05:21;;;;;;;0.30;0.10;;;;;;;8.42;100.00;98876.50;5033863;28;20037;-67
2024/03/27 02:07:48;;;;;;;2.05;0.20;;;;;;;8.42;100.00;98879.09;5038967;28;20029;-67
2024/03/27 02:10:13;;;;;;;0.70;0.10;;;;;;;8.39;100.00;98886.41;5034465;28;20040;-67
2024/03/27 02:12:40;;;;;;;0.50;0.20;;;;;;;8.39;100.00;98874.25;5038557;28;20799;-67
2024/03/27 02:15:07;;;;;;;0.52;0.20;;;;;;;8.39;100.00;98876.03;5034461;28;20021;-67
2024/03/27 02:17:32;;;;;;;0.45;0.20;;;;;;;8.37;100.00;98883.19;5039199;28;20039;-67
2024/03/27 02:19:58;;;;;;;6.45;0.32;;;;;;;8.38;100.00;98870.03;5034386;28;20116;-67
2024/03/27 02:22:25;;;;;;;0.60;0.20;;;;;;;8.39;100.00;98871.66;5037507;28;20052;-67
2024/03/27 02:25:05;;;;;;;0.20;0.10;;;;;;;8.47;100.00;98870.81;5044058;28;20033;-67
2024/03/27 02:27:31;;;;;;;0.52;0.20;;;;;;;8.47;100.00;98863.03;5041762;28;20040;-67
2024/03/27 02:29:57;;;;;;;0.50;0.20;;;;;;;8.49;100.00;98866.25;5044115;28;20037;-67
2024/03/27 02:32:22;;;;;;;0.55;0.20;;;;;;;8.55;100.00;98865.56;5046365;28;20047;-67
2024/03/27 02:34:48;;;;;;;0.60;0.20;;;;;;;8.59;100.00;98859.84;5049436;28;20040;-67
2024/03/27 02:37:13;;;;;;;0.57;0.20;;;;;;;8.61;100.00;98854.50;5045803;28;20029;-67
2024/03/27 02:39:39;;;;;;;1.23;0.20;;;;;;;8.66;100.00;98852.19;5041829;28;21954;-67
2024/03/27 02:42:05;;;;;;;0.38;0.10;;;;;;;8.75;100.00;98856.38;5045375;28;20059;-66
2024/03/27 02:44:30;;;;;;;2.40;0.20;;;;;;;8.75;100.00;98848.56;5045080;28;20104;-67
2024/03/27 02:46:56;;;;;;;9.82;0.38;;;;;;;8.71;100.00;98851.69;5048704;28;20703;-67
2024/03/27 02:49:21;;;;;;;0.30;0.10;;;;;;;8.74;100.00;98853.94;5045690;28;20075;-67
2024/03/27 02:51:47;;;;;;;0.20;0.10;;;;;;;8.64;100.00;98857.56;5051697;28;20032;-67
2024/03/27 02:54:12;;;;;;;0.40;0.10;;;;;;;8.61;100.00;98849.31;5045983;28;20128;-67
2024/03/27 02:56:38;;;;;;;0.60;0.10;;;;;;;8.62;100.00;98845.72;5048127;28;20120;-67
2024/03/27 02:59:04;;;;;;;2.22;0.32;;;;;;;8.69;100.00;98851.03;5039549;28;20025;-67
2024/03/27 03:01:29;;;;;;;0.90;0.20;;;;;;;8.70;100.00;98850.88;5044142;28;20444;-67
2024/03/27 03:03:55;;;;;;;0.40;0.28;;;;;;;8.65;100.00;98846.19;5044385;28;20448;-67
2024/03/27 03:06:20;;;;;;;0.50;0.20;;;;;;;8.59;100.00;98841.69;5042022;28;20040;-67
2024/03/27 03:08:46;;;;;;;2.00;0.20;;;;;;;8.57;100.00;98841.03;5044583;28;20029;-67
2024/03/27 03:11:11;;;;;;;1.00;0.20;;;;;;;8.57;100.00;98846.22;5041709;28;20098;-67
2024/03/27 03:13:37;;;;;;;0.70;0.10;;;;;;;8.57;100.00;98848.03;5047367;28;20117;-67
2024/03/27 03:16:04;;;;;;;1.90;0.20;;;;;;;8.54;100.00;98848.34;5045707;28;20025;-67
2024/03/27 03:18:29;;;;;;;1.13;0.20;;;;;;;8.52;100.00;98845.13;5043204;28;20101;-67
2024/03/27 03:21:02;;;;;;;0.57;0.20;;;;;;;8.49;100.00;98842.91;5046337;28;20452;-67
2024/03/27 03:23:29;;;;;;;0.70;0.20;;;;;;;8.49;100.00;98845.50;5045566;28;20043;-67
2024/03/27 03:25:54;;;;;;;2.00;0.22;;;;;;;8.47;100.00;98843.06;5047344;28;20025;-67
2024/03/27 03:28:19;;;;;;;0.85;0.17;;;;;;;8.46;100.00;98841.44;5045669;28;20040;-67
2024/03/27 03:30:45;;;;;;;0.77;0.25;;;;;;;8.45;100.00;98845.03;5042134;28;20025;-68
2024/03/27 03:33:10;;;;;;;1.55;0.25;;;;;;;8.42;100.00;98847.16;5040404;28;20045;-67
2024/03/27 03:35:36;;;;;;;1.08;0.20;;;;;;;8.40;100.00;98838.72;5051862;28;20057;-68
2024/03/27 03:38:03;;;;;;;0.52;0.20;;;;;;;8.41;100.00;98837.75;5043077;28;20361;-67
2024/03/27 03:40:28;;;;;;;2.15;0.30;;;;;;;8.39;100.00;98829.31;5038584;28;20032;-67
2024/03/27 03:42:54;;;;;;;1.00;0.30;;;;;;;8.41;100.00;98842.94;5045120;28;20029;-67
2024/03/27 03:45:20;;;;;;;4.68;0.30;;;;;;;8.42;100.00;98834.97;5043143;28;20574;-67
2024/03/27 03:47:45;;;;;;;1.02;0.32;;;;;;;8.47;100.00;98834.47;5047892;28;20032;-67
2024/03/27 03:50:10;;;;;;;5.05;0.30;;;;;;;8.46;100.00;98840.66;5045334;28;20404;-67
2024/03/27 03:52:36;;;;;;;1.48;0.40;;;;;;;8.44;100.00;98832.22;5045999;28;20067;-67
2024/03/27 03:55:01;;;;;;;4.78;0.40;;;;;;;8.46;100.00;98836.25;5043241;28;20021;-67
2024/03/27 03:57:27;;;;;;;1.45;0.50;;;;;;;8.48;100.00;98844.69;5042330;28;20480;-67
2024/03/27 03:59:53;;;;;;;1.48;0.30;;;;;;;8.51;100.00;98840.91;5038622;28;20033;-67
2024/03/27 04:02:18;;;;;;;0.63;0.30;;;;;;;8.46;100.00;98838.03;5041007;28;20051;-67
2024/03/27 04:04:44;;;;;;;1.15;0.40;;;;;;;8.48;100.00;98836.09;5045267;28;20440;-67
2024/03/27 04:07:09;;;;;;;1.10;0.30;;;;;;;8.55;100.00;98839.59;5044072;28;20032;-67
2024/03/27 04:09:35;;;;;;;1.48;0.25;;;;;;;8.54;100.00;98843.16;5042223;28;20036;-67
2024/03/27 04:12:00;;;;;;;0.85;0.30;;;;;;;8.49;100.00;98845.50;5044208;28;20021;-67
2024/03/27 04:14:26;;;;;;;2.38;0.30;;;;;;;8.46;100.00;98843.25;5038999;28;20386;-67
2024/03/27 04:16:51;;;;;;;0.38;0.15;;;;;;;8.47;100.00;98842.25;5042576;28;20036;-67
2024/03/27 04:19:16;;;;;;;0.35;0.10;;;;;;;8.44;100.00;98845.19;5048426;28;20515;-68
2024/03/27 04:21:42;;;;;;;0.63;0.20;;;;;;;8.42;100.00;98844.56;5050153;28;20032;-67
2024/03/27 04:24:08;;;;;;;0.43;0.20;;;;;;;8.43;100.00;98843.56;5045514;28;20037;-67
2024/03/27 04:26:33;;;;;;;0.68;0.20;;;;;;;8.43;100.00;98851.38;5042285;28;20044;-67
2024/03/27 04:28:59;;;;;;;0.45;0.17;;;;;;;8.43;100.00;98848.78;5045301;28;20073;-67
2024/03/27 04:31:24;;;;;;;0.55;0.20;;;;;;;8.43;100.00;98846.19;5043411;28;20044;-67
2024/03/27 04:33:50;;;;;;;0.60;0.20;;;;;;;8.47;100.00;98840.47;5041246;28;20152;-67
2024/03/27 04:36:16;;;;;;;0.93;0.40;;;;;;;8.47;100.00;98845.66;5040556;28;20033;-67
2024/03/27 04:38:42;;;;;;;0.80;0.30;;;;;;;8.44;100.00;98845.19;5042222;28;20048;-67
2024/03/27 04:41:09;;;;;;;1.25;0.20;;;;;;;8.44;100.00;98833.03;5039637;28;20033;-67
2024/03/27 04:43:37;;;;;;;1.02;0.20;;;;;;;8.41;100.00;98832.56;5041972;28;20028;-68
2024/03/27 04:46:04;;;;;;;1.83;0.20;;;;;;;8.41;100.00;98828.19;5042335;28;20029;-67
2024/03/27 04:48:29;;;;;;;2.47;0.30;;;;;;;8.41;100.00;98837.75;5041688;28;20033;-67
2024/03/27 04:50:55;;;;;;;1.75;0.40;;;;;;;8.40;100.00;98830.94;5046338;28;20071;-68
2024/03/27 04:53:21;;;;;;;1.92;0.40;;;;;;;8.41;100.00;98817.00;5037245;28;20155;-67
2024/03/27 04:55:57;;;;;;;1.85;0.50;;;;;;;8.40;100.00;98821.38;5046282;28;20044;-67
2024/03/27 04:58:22;;;;;;;1.80;0.57;;;;;;;8.42;100.00;98824.59;5032345;28;20040;-67
2024/03/27 05:00:47;;;;;;;2.58;0.30;;;;;;;8.40;100.00;98829.16;5032858;28;20021;-67
2024/03/27 05:03:13;;;;;;;0.63;0.30;;;;;;;8.39;100.00;98831.91;5041755;28;20051;-67
2024/03/27 05:05:41;;;;;;;2.33;0.57;;;;;;;8.40;100.00;98836.13;5047464;28;20119;-67
2024/03/27 05:08:06;;;;;;;1.55;0.40;;;;;;;8.45;100.00;98828.66;5047676;28;20031;-67
2024/03/27 05:10:32;;;;;;;1.73;0.60;;;;;;;8.44;100.00;98840.00;5045502;28;20033;-67
2024/03/27 05:12:57;;;;;;;0.90;0.40;;;;;;;8.45;100.00;98839.03;5045766;28;20036;-66
2024/03/27 05:15:22;;;;;;;1.75;0.50;;;;;;;8.45;100.00;98844.22;5041667;28;20021;-67
2024/03/27 05:17:48;;;;;;;1.92;0.47;;;;;;;8.45;100.00;98839.03;5042412;28;20123;-67
2024/03/27 05:20:17;;;;;;;1.77;0.60;;;;;;;8.43;100.00;98835.78;5042359;28;20079;-66
2024/03/27 05:22:43;;;;;;;3.13;0.50;;;;;;;8.42;100.00;98823.78;5041063;28;20040;-66
2024/03/27 05:25:09;;;;;;;1.20;0.40;;;;;;;8.40;100.00;98820.56;5037424;28;20028;-67
2024/03/27 05:27:34;;;;;;;1.58;0.65;;;;;;;8.40;100.00;98815.38;5043313;28;20109;-68
2024/03/27 05:30:00;;;;;;;1.67;0.30;;;;;;;8.41;100.00;98812.59;5045176;28;20115;-67
2024/03/27 05:32:26;;;;;;;1.33;0.40;;;;;;;8.41;100.00;98814.38;5038205;28;20415;-67
2024/03/27 05:34:52;;;;;;;0.60;0.20;;;;;;;8.44;100.00;98816.66;5015450;28;20037;-67
2024/03/27 05:37:18;;;;;;;0.73;0.30;;;;;;;8.47;100.00;98818.91;5021575;28;20055;-67
2024/03/27 05:39:44;;;;;;;3.70;0.30;;;;;;;8.50;100.00;98828.94;5016560;28;20457;-67
2024/03/27 05:42:09;;;;;;;0.60;0.30;;;;;;;8.52;100.00;98826.97;5020424;28;20056;-67
2024/03/27 05:44:35;;;;;;;3.60;0.30;;;;;;;8.55;100.00;98829.22;5011365;28;20033;-67
2024/03/27 05:47:01;;;;;;;0.85;0.20;;;;;;;8.56;100.00;98825.63;5016167;28;20021;-67
2024/03/27 05:49:29;;;;;;;1.27;0.30;;;;;;;8.60;100.00;98817.34;5026141;28;20120;-67
2024/03/27 05:51:55;;;;;;;1.50;0.35;;;;;;;8.62;100.00;98822.34;5027402;28;20034;-67
2024/03/27 05:54:20;;;;;;;1.10;0.20;;;;;;;8.58;100.00;98828.88;5024780;28;20035;-68
2024/03/27 05:56:46;;;;;;;4.57;0.20;;;;;;;8.53;100.00;98820.78;5027445;28;20021;-68
2024/03/27 05:59:11;;;;;;;0.98;0.30;;;;;;;8.53;100.00;98825.97;5027652;28;20132;-67
2024/03/27 06:01:37;;;;;;;2.03;0.30;;;;;;;8.51;100.00;98817.56;5032759;28;20030;-67
2024/03/27 06:04:03;;;;;;;2.17;0.40;;;;;;;8.53;100.00;98813.81;5025548;28;20033;-67
2024/03/27 06:06:28;;;;;;;0.95;0.30;;;;;;;8.58;100.00;98818.50;5025023;28;20558;-67
2024/03/27 06:08:54;;;;;;;2.65;0.20;;;;;;;8.59;100.00;98820.09;5033552;28;20034;-67
2024/03/27 06:11:19;;;;;;;1.33;0.20;;;;;;;8.61;100.00;98815.56;5024563;28;20077;-67
2024/03/27 06:13:45;;;;;;;1.77;0.30;;;;;;;8.61;100.00;98812.97;5021592;28;20125;-67
2024/03/27 06:16:11;;;;;;;3.90;0.40;;;;;;;8.60;100.00;98811.34;5021790;28;20060;-67
2024/03/27 06:18:36;;;;;;;0.65;0.10;;;;;;;8.58;100.00;98801.13;5029209;28;20033;-67
2024/03/27 06:21:03;;;;;;;4.20;0.30;;;;;;;8.66;100.00;98805.47;5029435;28;20143;-67
2024/03/27 06:23:28;;;;;;;1.42;0.43;;;;;;;8.69;100.00;98810.31;5027466;28;20040;-67
2024/03/27 06:25:56;;;;;;;0.77;0.20;;;;;;;8.68;100.00;98811.28;5030674;28;20029;-67
2024/03/27 06:28:21;;;;;;;0.73;0.20;;;;;;;8.66;100.00;98808.06;5030215;28;20036;-67
2024/03/27 06:30:47;;;;;;;1.92;0.20;;;;;;;8.68;100.00;98808.69;5026394;28;20033;-67
2024/03/27 06:33:12;;;;;;;1.15;0.20;;;;;;;8.65;100.00;98799.47;5029113;28;20045;-67
2024/03/27 06:35:37;;;;;;;0.47;0.20;;;;;;;8.65;100.00;98802.06;5050274;28;20488;-67
2024/03/27 06:38:03;;;;;;;6.97;0.35;;;;;;;8.64;100.00;98797.84;5046781;28;20024;-67
2024/03/27 06:40:29;;;;;;;0.98;0.10;;;;;;;8.67;100.00;98801.06;5050097;28;20033;-67
2024/03/27 06:42:55;;;;;;;0.93;0.10;;;;;;;8.71;100.00;98808.34;5043559;28;20090;-67
2024/03/27 06:45:20;;;;;;;2.38;0.20;;;;;;;8.69;100.00;98805.13;5045924;28;20080;-67
2024/03/27 06:47:46;;;;;;;0.88;0.10;;;;;;;8.72;100.00;98799.59;5051092;28;20060;-67
2024/03/27 06:50:12;;;;;;;1.90;0.10;;;;;;;8.73;100.00;98788.22;5042498;28;20047;-67
2024/03/27 06:52:37;;;;;;;2.47;0.30;;;;;;;8.82;100.00;98778.59;5039568;28;20037;-67
2024/03/27 06:55:03;;;;;;;0.35;0.10;;;;;;;8.90;100.00;98776.72;5044044;28;20053;-67
2024/03/27 06:57:28;;;;;;;1.00;0.10;;;;;;;8.97;100.00;98777.66;5046899;28;20037;-67
2024/03/27 06:59:54;;;;;;;1.77;0.10;;;;;;;9.02;100.00;98771.91;5045050;28;20025;-67
2024/03/27 07:02:19;;;;;;;2.35;0.10;;;;;;;9.07;100.00;98767.00;5042322;28;20041;-67
2024/03/27 07:04:45;;;;;;;0.93;0.22;;;;;;;9.12;100.00;98774.25;5040906;28;20030;-67
2024/03/27 07:07:10;;;;;;;2.05;0.20;;;;;;;9.12;100.00;98762.06;5048126;28;20037;-67
2024/03/27 07:09:37;;;;;;;0.55;0.10;;;;;;;9.20;100.00;98766.41;5037487;28;20033;-67
2024/03/27 07:12:02;;;;;;;0.73;0.20;;;;;;;9.26;100.00;98753.50;5040166;28;20021;-67
2024/03/27 07:14:28;;;;;;;2.38;0.10;;;;;;;9.36;100.00;98755.03;5049839;28;20025;-68
2024/03/27 07:16:53;;;;;;;2.55;0.20;;;;;;;9.42;100.00;98755.13;5041666;28;20036;-68
2024/03/27 07:19:18;;;;;;;0.40;0.10;;;;;;;9.45;100.00;98753.97;5048697;28;20070;-67
2024/03/27 07:21:44;;;;;;;2.20;0.10;;;;;;;9.52;100.00;98740.06;5034402;28;20034;-67
2024/03/27 07:24:09;;;;;;;2.55;0.20;;;;;;;9.54;100.00;98747.69;5041160;28;20528;-67
2024/03/27 07:26:38;;;;;;;1.73;0.40;;;;;;;9.57;100.00;98748.13;5043245;28;20064;-67
2024/03/27 07:29:07;;;;;;;0.63;0.10;;;;;;;9.56;100.00;98746.53;5042414;28;20029;-67
2024/03/27 07:31:32;;;;;;;0.52;0.10;;;;;;;9.58;100.00;98754.13;5044649;28;20033;-67
2024/03/27 07:33:58;;;;;;;2.30;0.13;;;;;;;9.60;100.00;98752.97;5046933;28;20033;-67
2024/03/27 07:36:24;;;;;;;0.43;0.10;;;;;;;9.64;100.00;98749.03;5044730;28;20906;-67
2024/03/27 07:38:50;;;;;;;1.10;0.10;;;;;;;9.69;100.00;98751.09;5050832;28;20029;-67
2024/03/27 07:41:16;;;;;;;1.15;0.20;;;;;;;9.74;100.00;98753.16;5046191;28;20044;-67
2024/03/27 07:43:41;;;;;;;0.93;0.20;;;;;;;9.73;100.00;98769.75;5053151;28;20033;-67
2024/03/27 07:46:07;;;;;;;2.72;0.10;;;;;;;9.64;100.00;98763.81;5041303;28;20078;-68
2024/03/27 07:48:34;;;;;;;0.50;0.10;;;;;;;9.64;100.00;98756.84;5046545;28;20032;-67
2024/03/27 07:51:00;;;;;;;1.38;0.10;;;;;;;9.63;100.00;98768.22;5037280;28;20094;-68
2024/03/27 07:53:25;;;;;;;0.82;0.10;;;;;;;9.61;100.00;98766.78;5044537;28;20545;-67
2024/03/27 07:55:58;;;;;;;2.03;0.20;;;;;;;9.55;100.00;98770.91;5037762;28;20330;-67
2024/03/27 07:58:24;;;;;;;0.30;0.20;;;;;;;9.48;100.00;98767.41;5041010;28;20029;-68
2024/03/27 08:00:51;;;;;;;0.80;0.15;;;;;;;9.49;100.00;98765.59;5039170;28;20033;-67
2024/03/27 08:03:17;;;;;;;1.73;0.17;;;;;;;9.46;100.00;98763.38;5040195;28;20041;-67
2024/03/27 08:05:45;;;;;;;0.50;0.10;;;;;;;9.49;100.00;98763.81;5044850;28;20473;-67
2024/03/27 08:08:11;;;;;;;0.50;0.10;;;;;;;9.51;100.00;98753.25;5035932;28;20038;-68
2024/03/27 08:10:38;;;;;;;1.00;0.20;;;;;;;9.49;100.00;98750.81;5040644;28;20499;-67
2024/03/27 08:13:04;;;;;;;0.30;0.10;;;;;;;9.46;100.00;98756.38;5031751;28;20440;-67
2024/03/27 08:15:29;;;;;;;0.40;0.10;;;;;;;9.46;100.00;98756.38;5039667;28;20028;-67
2024/03/27 08:17:55;;;;;;;1.23;0.20;;;;;;;9.41;100.00;98753.53;5032146;28;20033;-67
2024/03/27 08:20:21;;;;;;;4.68;0.13;;;;;;;9.44;100.00;98757.56;5039918;28;20104;-67
2024/03/27 08:22:47;;;;;;;1.25;0.28;;;;;;;9.47;100.00;98763.19;5037775;28;20047;-67
2024/03/27 08:25:13;;;;;;;1.40;0.20;;;;;;;9.49;100.00;98748.22;5039262;28;20033;-67
2024/03/27 08:27:38;;;;;;;1.13;0.25;;;;;;;9.57;100.00;98749.94;5040409;28;20103;-67
2024/03/27 08:30:04;;;;;;;2.78;0.20;;;;;;;9.65;100.00;98749.84;5035714;28;20375;-67
2024/03/27 08:32:31;;;;;;;1.35;0.30;;;;;;;9.69;100.00;98748.50;5034248;28;20086;-67
2024/03/27 08:34:56;;;;;;;1.10;0.30;;;;;;;9.67;100.00;98747.06;5044336;28;20033;-67
2024/03/27 08:37:22;;;;;;;0.85;0.20;;;;;;;9.64;100.00;98754.22;5040030;28;20138;-68
2024/03/27 08:39:47;;;;;;;0.52;0.20;;;;;;;9.61;100.00;98753.78;5043193;28;20138;-68
2024/03/27 08:42:13;;;;;;;1.02;0.20;;;;;;;9.62;100.00;98756.19;5037669;28;20030;-68
2024/03/27 08:44:38;;;;;;;0.77;0.17;;;;;;;9.59;100.00;98746.16;5045107;28;20331;-67
2024/03/27 08:47:04;;;;;;;1.85;0.20;;;;;;;9.60;100.00;98739.16;5040731;28;20032;-67
2024/03/27 08:49:29;;;;;;;0.50;0.20;;;;;;;9.63;100.00;98734.41;5047029;28;20060;-67
2024/03/27 08:51:55;;;;;;;0.40;0.10;;;;;;;9.67;100.00;98731.47;5041497;28;20132;-67
2024/03/27 08:54:21;;;;;;;2.63;0.20;;;;;;;9.65;100.00;98742.84;5038329;28;20029;-67
2024/03/27 08:56:46;;;;;;;1.27;0.20;;;;;;;9.69;100.00;98745.09;5037930;28;20052;-67
2024/03/27 08:59:11;;;;;;;0.73;0.20;;;;;;;9.73;100.00;98743.75;5039712;28;20079;-67
2024/03/27 09:01:37;;;;;;;0.90;0.20;;;;;;;9.73;100.00;98746.34;5036918;28;20029;-67
2024/03/27 09:04:02;;;;;;;0.60;0.15;;;;;;;9.73;100.00;98747.16;5039324;28;20402;-67
2024/03/27 09:06:28;;;;;;;0.40;0.10;;;;;;;9.76;100.00;98740.78;5043575;28;20048;-67
2024/03/27 09:08:53;;;;;;;1.45;0.20;;;;;;;9.80;100.00;98750.66;5040669;28;20029;-67
2024/03/27 09:11:21;;;;;;;0.68;0.15;;;;;;;9.81;100.00;98752.25;5040268;28;20044;-67
2024/03/27 09:13:46;;;;;;;0.70;0.20;;;;;;;9.85;100.00;98750.09;5036704;28;20119;-67
2024/03/27 09:16:12;;;;;;;1.73;0.20;;;;;;;9.87;100.00;98748.94;5048599;28;20561;-67
2024/03/27 09:18:37;;;;;;;1.38;0.20;;;;;;;9.86;100.00;98743.91;5049005;28;20078;-67
2024/03/27 09:21:03;;;;;;;4.50;0.30;;;;;;;9.85;100.00;98739.69;5048771;28;20029;-67
2024/03/27 09:23:29;;;;;;;2.70;0.28;;;;;;;9.80;100.00;98748.03;5035777;28;20040;-67
2024/03/27 09:25:59;;;;;;;1.38;0.25;;;;;;;9.76;100.00;98745.97;5047774;28;20037;-67
2024/03/27 09:28:25;;;;;;;0.82;0.20;;;;;;;9.71;100.00;98738.72;5046311;28;20044;-68
2024/03/27 09:30:51;;;;;;;1.38;0.20;;;;;;;9.73;100.00;98738.53;5043631;28;20032;-67
2024/03/27 09:33:17;;;;;;;4.43;0.20;;;;;;;9.79;100.00;98733.44;5047295;28;20041;-67
2024/03/27 09:35:45;;;;;;;0.20;0.10;;;;;;;9.84;100.00;98738.09;5036345;28;20455;-67
2024/03/27 09:38:10;;;;;;;0.75;0.20;;;;;;;9.84;100.00;98738.88;5046885;28;20124;-67
2024/03/27 09:40:44;;;;;;;0.63;0.20;;;;;;;9.80;100.00;98726.44;5044318;28;20107;-67
2024/03/27 09:43:11;;;;;;;0.68;0.20;;;;;;;9.82;100.00;98730.47;5044043;28;20040;-68
2024/03/27 09:45:38;;;;;;;0.40;0.10;;;;;;;9.85;100.00;98722.28;5043300;28;20036;-67
2024/03/27 09:48:05;;;;;;;0.20;0.10;;;;;;;9.94;100.00;98722.97;5040385;28;20122;-67
2024/03/27 09:50:33;;;;;;;0.60;0.10;;;;;;;10.01;100.00;98721.25;5040662;28;20056;-68
2024/03/27 09:52:59;;;;;;;0.70;0.20;;;;;;;10.06;100.00;98718.09;5046806;28;20134;-66
2024/03/27 09:55:26;;;;;;;0.65;0.10;;;;;;;10.08;100.00;98716.94;5048785;28;20083;-67
2024/03/27 09:57:54;;;;;;;0.43;0.10;;;;;;;10.15;100.00;98715.22;5049450;28;20480;-67
2024/03/27 10:00:19;;;;;;;2.67;0.20;;;;;;;10.13;100.00;98709.38;5041145;28;20410;-67
2024/03/27 10:02:45;;;;;;;0.80;0.20;;;;;;;10.15;100.00;98709.22;5034212;28;20037;-67
2024/03/27 10:05:12;;;;;;;0.70;0.20;;;;;;;10.16;100.00;98703.00;5038206;28;20444;-68
2024/03/27 10:07:38;;;;;;;1.85;0.17;;;;;;;10.21;100.00;98695.50;5046458;28;20481;-67
2024/03/27 10:10:04;;;;;;;1.35;0.20;;;;;;;10.28;100.00;98683.34;5039242;28;20069;-67
2024/03/27 10:12:30;;;;;;;1.45;0.20;;;;;;;10.44;100.00;98682.28;5040972;28;20409;-67
2024/03/27 10:14:56;;;;;;;0.63;0.20;;;;;;;10.72;100.00;98677.13;5036239;28;20094;-67
2024/03/27 10:17:21;;;;;;;0.65;0.10;;;;;;;10.97;100.00;98673.06;5041893;28;20055;-67
2024/03/27 10:19:47;;;;;;;1.38;0.20;;;;;;;11.07;100.00;98677.97;5038978;28;20445;-67
2024/03/27 10:22:12;;;;;;;1.15;0.25;;;;;;;11.00;100.00;98679.72;5044931;28;20060;-67
2024/03/27 10:24:38;;;;;;;0.40;0.22;;;;;;;11.05;100.00;98674.75;5038011;28;20047;-67
2024/03/27 10:27:03;;;;;;;2.90;0.17;;;;;;;11.17;100.00;98670.59;5038407;28;20438;-67
2024/03/27 10:29:29;;;;;;;1.42;0.20;;;;;;;11.36;100.00;98656.06;5040005;28;20029;-67
2024/03/27 10:31:56;;;;;;;1.88;0.20;;;;;;;11.57;100.00;98654.16;5042153;28;20066;-66
2024/03/27 10:34:21;;;;;;;2.10;0.20;;;;;;;11.64;100.00;98652.38;5042772;28;20037;-67
2024/03/27 10:36:52;;;;;;;0.80;0.50;;;;;;;11.76;100.00;98646.59;5043168;28;20029;-67
2024/03/27 10:39:22;;;;;;;0.52;0.20;;;;;;;11.87;100.00;98643.44;5046294;28;20036;-66
2024/03/27 10:41:50;;;;;;;1.45;0.32;;;;;;;11.72;100.00;98640.16;5047720;28;20029;-67
2024/03/27 10:44:17;;;;;;;1.63;0.30;;;;;;;11.82;100.00;98641.41;5045984;28;20033;-67
2024/03/27 10:46:47;;;;;;;1.02;0.10;;;;;;;11.73;100.00;98641.78;5051309;28;20029;-67
2024/03/27 10:49:14;;;;;;;2.33;0.40;;;;;;;11.72;100.00;98629.72;5045567;28;20419;-67
2024/03/27 10:51:40;;;;;;;1.35;0.17;;;;;;;11.82;100.00;98630.16;5043852;28;20116;-67
2024/03/27 10:54:07;;;;;;;1.10;0.30;;;;;;;11.83;100.00;98627.38;5043099;28;20423;-67
2024/03/27 10:56:32;;;;;;;1.85;0.20;;;;;;;11.85;100.00;98624.56;5050975;28;20492;-67
2024/03/27 10:58:58;;;;;;;1.17;0.10;;;;;;;11.79;100.00;98620.97;5051339;28;20064;-67
2024/03/27 11:01:25;;;;;;;2.53;0.10;;;;;;;11.81;100.00;98615.53;5048101;28;20062;-67
2024/03/27 11:03:52;;;;;;;0.70;0.20;;;;;;;11.86;100.00;98611.31;5038014;28;20501;-67
2024/03/27 11:06:17;;;;;;;0.30;0.10;;;;;;;11.84;100.00;98602.88;5040118;28;20434;-67
2024/03/27 11:08:44;;;;;;;0.77;0.10;;;;;;;11.92;100.00;98612.34;5050106;28;20035;-67
2024/03/27 11:11:11;;;;;;;1.10;0.20;;;;;;;11.90;100.00;98607.31;5046878;28;20183;-67
2024/03/27 11:13:37;;;;;;;1.00;0.20;;;;;;;11.90;100.00;98607.31;5043874;28;20403;-68
2024/03/27 11:16:10;;;;;;;0.75;0.20;;;;;;;11.87;100.00;98596.47;5046409;28;20028;-68
2024/03/27 11:18:35;;;;;;;3.00;0.20;;;;;;;11.99;100.00;98594.09;5042343;28;20029;-68
2024/03/27 11:21:01;;;;;;;1.35;0.20;;;;;;;12.06;100.00;98597.50;5046109;28;20020;-67
2024/03/27 11:23:33;;;;;;;1.83;0.10;;;;;;;12.15;100.00;98578.84;5046675;28;20036;-67
2024/03/27 11:26:00;;;;;;;0.55;0.20;;;;;;;12.10;100.00;98581.25;5040497;28;20033;-67